sensor_id;sensor_type;location;lat;lon;timestamp;P1;durP1;ratioP1;P2;durP2;ratioP2
79371;SDS011;68914;51.262;6.802;2023-06-14T00:00:21;10.18;;;6.25;;
79371;SDS011;68914;51.262;6.802;2023-06-14T00:01:22;11.43;;;6.45;;
79371;SDS011;68914;51.262;6.802;2023-06-14T00:02:23;10.77;;;6.43;;
79371;SDS011;68914;51.262;6.802;2023-06-14T00:03:23;9.75;;;6.13;;
79371;SDS011;68914;51.262;6.802;2023-06-14T00:04:24;11.27;;;6.68;;
79371;SDS011;68914;51.262;6.802;2023-06-14T00:05:25;9.90;;;6.30;;
79371;SDS011;68914;51.262;6.802;2023-06-14T00:06:26;10.45;;;6.82;;
79371;SDS011;68914;51.262;6.802;2023-06-14T00:07:35;10.77;;;6.38;;
79371;SDS011;68914;51.262;6.802;2023-06-14T00:08:38;10.00;;;6.60;;
79371;SDS011;68914;51.262;6.802;2023-06-14T00:09:40;9.90;;;6.47;;
79371;SDS011;68914;51.262;6.802;2023-06-14T00:10:40;10.23;;;6.40;;
79371;SDS011;68914;51.262;6.802;2023-06-14T00:11:42;10.27;;;6.35;;
79371;SDS011;68914;51.262;6.802;2023-06-14T00:12:42;11.55;;;6.30;;
79371;SDS011;68914;51.262;6.802;2023-06-14T00:13:43;11.30;;;6.67;;
79371;SDS011;68914;51.262;6.802;2023-06-14T00:14:44;11.43;;;6.45;;
79371;SDS011;68914;51.262;6.802;2023-06-14T00:15:45;10.97;;;6.47;;
79371;SDS011;68914;51.262;6.802;2023-06-14T00:16:46;11.05;;;6.68;;
79371;SDS011;68914;51.262;6.802;2023-06-14T00:17:47;10.48;;;6.43;;
79371;SDS011;68914;51.262;6.802;2023-06-14T00:18:48;12.32;;;6.65;;
79371;SDS011;68914;51.262;6.802;2023-06-14T00:19:49;11.40;;;6.23;;
79371;SDS011;68914;51.262;6.802;2023-06-14T00:20:50;10.32;;;6.25;;
79371;SDS011;68914;51.262;6.802;2023-06-14T00:21:52;12.35;;;6.38;;
79371;SDS011;68914;51.262;6.802;2023-06-14T00:22:53;10.02;;;6.53;;
79371;SDS011;68914;51.262;6.802;2023-06-14T00:23:55;11.07;;;6.65;;
79371;SDS011;68914;51.262;6.802;2023-06-14T00:24:57;11.27;;;6.43;;
79371;SDS011;68914;51.262;6.802;2023-06-14T00:25:58;10.57;;;6.73;;
79371;SDS011;68914;51.262;6.802;2023-06-14T00:26:58;12.23;;;6.47;;
79371;SDS011;68914;51.262;6.802;2023-06-14T00:29:00;10.30;;;6.50;;
79371;SDS011;68914;51.262;6.802;2023-06-14T00:30:00;10.27;;;6.57;;
79371;SDS011;68914;51.262;6.802;2023-06-14T00:31:02;10.45;;;6.85;;
79371;SDS011;68914;51.262;6.802;2023-06-14T00:32:05;10.77;;;6.75;;
79371;SDS011;68914;51.262;6.802;2023-06-14T00:33:06;11.03;;;6.67;;
79371;SDS011;68914;51.262;6.802;2023-06-14T00:34:07;10.52;;;6.45;;
79371;SDS011;68914;51.262;6.802;2023-06-14T00:35:09;10.70;;;6.63;;
79371;SDS011;68914;51.262;6.802;2023-06-14T00:36:10;10.27;;;6.90;;
79371;SDS011;68914;51.262;6.802;2023-06-14T00:37:12;12.75;;;7.05;;
79371;SDS011;68914;51.262;6.802;2023-06-14T00:38:12;12.33;;;6.70;;
79371;SDS011;68914;51.262;6.802;2023-06-14T00:39:14;10.93;;;6.95;;
79371;SDS011;68914;51.262;6.802;2023-06-14T00:40:15;11.55;;;6.55;;
79371;SDS011;68914;51.262;6.802;2023-06-14T00:41:15;13.10;;;6.90;;
79371;SDS011;68914;51.262;6.802;2023-06-14T00:42:22;10.20;;;6.57;;
79371;SDS011;68914;51.262;6.802;2023-06-14T00:43:27;10.82;;;6.65;;
79371;SDS011;68914;51.262;6.802;2023-06-14T00:44:27;11.33;;;6.53;;
79371;SDS011;68914;51.262;6.802;2023-06-14T00:45:28;13.65;;;7.03;;
79371;SDS011;68914;51.262;6.802;2023-06-14T00:46:29;12.10;;;7.00;;
79371;SDS011;68914;51.262;6.802;2023-06-14T00:47:29;12.30;;;6.60;;
79371;SDS011;68914;51.262;6.802;2023-06-14T00:48:30;10.47;;;6.40;;
79371;SDS011;68914;51.262;6.802;2023-06-14T00:49:32;10.50;;;6.60;;
79371;SDS011;68914;51.262;6.802;2023-06-14T00:50:32;11.50;;;6.95;;
79371;SDS011;68914;51.262;6.802;2023-06-14T00:51:34;11.05;;;6.85;;
79371;SDS011;68914;51.262;6.802;2023-06-14T00:52:35;10.50;;;7.00;;
79371;SDS011;68914;51.262;6.802;2023-06-14T00:53:36;11.32;;;7.20;;
79371;SDS011;68914;51.262;6.802;2023-06-14T00:54:40;11.43;;;6.63;;
79371;SDS011;68914;51.262;6.802;2023-06-14T00:55:42;11.23;;;6.90;;
79371;SDS011;68914;51.262;6.802;2023-06-14T00:56:42;10.38;;;6.97;;
79371;SDS011;68914;51.262;6.802;2023-06-14T00:57:46;10.07;;;6.50;;
79371;SDS011;68914;51.262;6.802;2023-06-14T00:58:47;10.93;;;6.53;;
79371;SDS011;68914;51.262;6.802;2023-06-14T00:59:49;10.20;;;6.65;;
79371;SDS011;68914;51.262;6.802;2023-06-14T01:00:51;11.82;;;6.82;;
79371;SDS011;68914;51.262;6.802;2023-06-14T01:01:51;10.30;;;6.70;;
79371;SDS011;68914;51.262;6.802;2023-06-14T01:02:52;11.53;;;7.47;;
79371;SDS011;68914;51.262;6.802;2023-06-14T01:04:18;11.52;;;6.65;;
79371;SDS011;68914;51.262;6.802;2023-06-14T01:05:44;11.13;;;6.97;;
79371;SDS011;68914;51.262;6.802;2023-06-14T01:07:12;11.35;;;7.13;;
79371;SDS011;68914;51.262;6.802;2023-06-14T01:09:07;11.90;;;7.07;;
79371;SDS011;68914;51.262;6.802;2023-06-14T01:11:12;12.90;;;7.40;;
79371;SDS011;68914;51.262;6.802;2023-06-14T01:13:43;10.52;;;7.10;;
79371;SDS011;68914;51.262;6.802;2023-06-14T01:14:45;12.70;;;6.97;;
79371;SDS011;68914;51.262;6.802;2023-06-14T01:15:48;11.73;;;6.72;;
79371;SDS011;68914;51.262;6.802;2023-06-14T01:16:51;11.60;;;6.82;;
79371;SDS011;68914;51.262;6.802;2023-06-14T01:17:55;10.82;;;6.78;;
79371;SDS011;68914;51.262;6.802;2023-06-14T01:18:57;12.30;;;7.07;;
79371;SDS011;68914;51.262;6.802;2023-06-14T01:19:59;10.55;;;6.75;;
79371;SDS011;68914;51.262;6.802;2023-06-14T01:21:03;12.00;;;7.05;;
79371;SDS011;68914;51.262;6.802;2023-06-14T01:22:06;11.30;;;6.93;;
79371;SDS011;68914;51.262;6.802;2023-06-14T01:23:08;11.47;;;7.10;;
79371;SDS011;68914;51.262;6.802;2023-06-14T01:24:09;11.68;;;7.15;;
79371;SDS011;68914;51.262;6.802;2023-06-14T01:25:11;12.38;;;6.97;;
79371;SDS011;68914;51.262;6.802;2023-06-14T01:26:12;10.15;;;7.10;;
79371;SDS011;68914;51.262;6.802;2023-06-14T01:27:13;10.83;;;7.00;;
79371;SDS011;68914;51.262;6.802;2023-06-14T01:28:15;11.48;;;7.15;;
79371;SDS011;68914;51.262;6.802;2023-06-14T01:29:16;12.27;;;7.38;;
79371;SDS011;68914;51.262;6.802;2023-06-14T01:30:20;11.23;;;6.70;;
79371;SDS011;68914;51.262;6.802;2023-06-14T01:31:21;10.93;;;6.68;;
79371;SDS011;68914;51.262;6.802;2023-06-14T01:32:23;12.85;;;7.00;;
79371;SDS011;68914;51.262;6.802;2023-06-14T01:33:27;11.70;;;7.30;;
79371;SDS011;68914;51.262;6.802;2023-06-14T01:34:29;10.95;;;6.90;;
79371;SDS011;68914;51.262;6.802;2023-06-14T01:35:30;12.73;;;7.17;;
79371;SDS011;68914;51.262;6.802;2023-06-14T01:36:30;11.00;;;7.30;;
79371;SDS011;68914;51.262;6.802;2023-06-14T01:37:31;10.90;;;6.82;;
79371;SDS011;68914;51.262;6.802;2023-06-14T01:38:35;11.57;;;7.20;;
79371;SDS011;68914;51.262;6.802;2023-06-14T01:39:37;12.07;;;7.38;;
79371;SDS011;68914;51.262;6.802;2023-06-14T01:40:38;10.95;;;7.13;;
79371;SDS011;68914;51.262;6.802;2023-06-14T01:41:40;11.95;;;7.28;;
79371;SDS011;68914;51.262;6.802;2023-06-14T01:42:41;11.77;;;7.07;;
79371;SDS011;68914;51.262;6.802;2023-06-14T01:43:44;11.80;;;6.90;;
79371;SDS011;68914;51.262;6.802;2023-06-14T01:44:47;14.88;;;7.15;;
79371;SDS011;68914;51.262;6.802;2023-06-14T01:45:48;10.93;;;7.00;;
79371;SDS011;68914;51.262;6.802;2023-06-14T01:46:52;10.27;;;6.80;;
79371;SDS011;68914;51.262;6.802;2023-06-14T01:47:56;12.50;;;7.32;;
79371;SDS011;68914;51.262;6.802;2023-06-14T01:48:57;12.05;;;7.25;;
79371;SDS011;68914;51.262;6.802;2023-06-14T01:50:01;12.30;;;6.82;;
79371;SDS011;68914;51.262;6.802;2023-06-14T01:51:04;10.77;;;6.78;;
79371;SDS011;68914;51.262;6.802;2023-06-14T01:52:05;11.43;;;6.90;;
79371;SDS011;68914;51.262;6.802;2023-06-14T01:53:09;10.40;;;6.72;;
79371;SDS011;68914;51.262;6.802;2023-06-14T01:54:11;12.18;;;7.00;;
79371;SDS011;68914;51.262;6.802;2023-06-14T01:55:12;10.60;;;6.75;;
79371;SDS011;68914;51.262;6.802;2023-06-14T01:56:13;10.30;;;6.73;;
79371;SDS011;68914;51.262;6.802;2023-06-14T01:57:14;10.88;;;6.82;;
79371;SDS011;68914;51.262;6.802;2023-06-14T01:58:15;10.38;;;6.85;;
79371;SDS011;68914;51.262;6.802;2023-06-14T01:59:17;10.48;;;6.63;;
79371;SDS011;68914;51.262;6.802;2023-06-14T02:00:20;12.30;;;6.93;;
79371;SDS011;68914;51.262;6.802;2023-06-14T02:01:22;11.60;;;7.20;;
79371;SDS011;68914;51.262;6.802;2023-06-14T02:02:22;12.63;;;7.43;;
79371;SDS011;68914;51.262;6.802;2023-06-14T02:03:23;11.13;;;6.87;;
79371;SDS011;68914;51.262;6.802;2023-06-14T02:04:26;11.23;;;7.13;;
79371;SDS011;68914;51.262;6.802;2023-06-14T02:05:27;10.82;;;6.97;;
79371;SDS011;68914;51.262;6.802;2023-06-14T02:06:28;11.50;;;7.20;;
79371;SDS011;68914;51.262;6.802;2023-06-14T02:07:29;10.18;;;6.72;;
79371;SDS011;68914;51.262;6.802;2023-06-14T02:08:30;10.33;;;6.83;;
79371;SDS011;68914;51.262;6.802;2023-06-14T02:09:30;12.93;;;6.80;;
79371;SDS011;68914;51.262;6.802;2023-06-14T02:10:31;10.10;;;6.40;;
79371;SDS011;68914;51.262;6.802;2023-06-14T02:11:32;11.85;;;6.63;;
79371;SDS011;68914;51.262;6.802;2023-06-14T02:12:32;11.10;;;6.90;;
79371;SDS011;68914;51.262;6.802;2023-06-14T02:13:33;11.13;;;6.60;;
79371;SDS011;68914;51.262;6.802;2023-06-14T02:14:34;10.55;;;6.78;;
79371;SDS011;68914;51.262;6.802;2023-06-14T02:15:35;10.57;;;6.70;;
79371;SDS011;68914;51.262;6.802;2023-06-14T02:16:36;10.45;;;6.70;;
79371;SDS011;68914;51.262;6.802;2023-06-14T02:17:37;12.45;;;6.75;;
79371;SDS011;68914;51.262;6.802;2023-06-14T02:18:40;13.15;;;6.55;;
79371;SDS011;68914;51.262;6.802;2023-06-14T02:19:41;12.57;;;6.77;;
79371;SDS011;68914;51.262;6.802;2023-06-14T02:20:42;10.55;;;6.40;;
79371;SDS011;68914;51.262;6.802;2023-06-14T02:21:43;10.17;;;6.57;;
79371;SDS011;68914;51.262;6.802;2023-06-14T02:22:46;10.20;;;6.50;;
79371;SDS011;68914;51.262;6.802;2023-06-14T02:23:47;10.60;;;6.60;;
79371;SDS011;68914;51.262;6.802;2023-06-14T02:24:48;10.57;;;6.80;;
79371;SDS011;68914;51.262;6.802;2023-06-14T02:25:48;12.93;;;7.07;;
79371;SDS011;68914;51.262;6.802;2023-06-14T02:26:49;10.60;;;6.30;;
79371;SDS011;68914;51.262;6.802;2023-06-14T02:27:50;10.65;;;6.68;;
79371;SDS011;68914;51.262;6.802;2023-06-14T02:28:51;10.33;;;6.00;;
79371;SDS011;68914;51.262;6.802;2023-06-14T02:29:51;12.50;;;6.32;;
79371;SDS011;68914;51.262;6.802;2023-06-14T02:30:52;10.77;;;6.17;;
79371;SDS011;68914;51.262;6.802;2023-06-14T02:31:56;10.68;;;6.70;;
79371;SDS011;68914;51.262;6.802;2023-06-14T02:32:57;10.10;;;6.40;;
79371;SDS011;68914;51.262;6.802;2023-06-14T02:33:59;11.05;;;6.45;;
79371;SDS011;68914;51.262;6.802;2023-06-14T02:34:59;11.27;;;6.50;;
79371;SDS011;68914;51.262;6.802;2023-06-14T02:36:00;10.88;;;6.55;;
79371;SDS011;68914;51.262;6.802;2023-06-14T02:37:02;10.35;;;6.55;;
79371;SDS011;68914;51.262;6.802;2023-06-14T02:38:03;10.27;;;6.50;;
79371;SDS011;68914;51.262;6.802;2023-06-14T02:39:04;10.40;;;6.40;;
79371;SDS011;68914;51.262;6.802;2023-06-14T02:40:05;10.37;;;6.30;;
79371;SDS011;68914;51.262;6.802;2023-06-14T02:41:06;10.95;;;6.88;;
79371;SDS011;68914;51.262;6.802;2023-06-14T02:42:07;11.45;;;6.95;;
79371;SDS011;68914;51.262;6.802;2023-06-14T02:43:08;10.63;;;6.70;;
79371;SDS011;68914;51.262;6.802;2023-06-14T02:44:09;12.30;;;6.32;;
79371;SDS011;68914;51.262;6.802;2023-06-14T02:45:12;10.07;;;6.30;;
79371;SDS011;68914;51.262;6.802;2023-06-14T02:46:12;9.93;;;6.20;;
79371;SDS011;68914;51.262;6.802;2023-06-14T02:47:13;11.53;;;6.53;;
79371;SDS011;68914;51.262;6.802;2023-06-14T02:48:13;11.05;;;6.68;;
79371;SDS011;68914;51.262;6.802;2023-06-14T02:49:14;10.50;;;6.50;;
79371;SDS011;68914;51.262;6.802;2023-06-14T02:50:15;12.03;;;6.70;;
79371;SDS011;68914;51.262;6.802;2023-06-14T02:51:17;10.38;;;6.40;;
79371;SDS011;68914;51.262;6.802;2023-06-14T02:52:17;10.82;;;6.43;;
79371;SDS011;68914;51.262;6.802;2023-06-14T02:53:18;10.70;;;6.30;;
79371;SDS011;68914;51.262;6.802;2023-06-14T02:54:19;11.35;;;6.45;;
79371;SDS011;68914;51.262;6.802;2023-06-14T02:55:20;10.57;;;6.33;;
79371;SDS011;68914;51.262;6.802;2023-06-14T02:56:20;10.23;;;6.45;;
79371;SDS011;68914;51.262;6.802;2023-06-14T02:57:23;12.50;;;7.00;;
79371;SDS011;68914;51.262;6.802;2023-06-14T02:58:24;11.93;;;6.93;;
79371;SDS011;68914;51.262;6.802;2023-06-14T02:59:25;10.27;;;6.32;;
79371;SDS011;68914;51.262;6.802;2023-06-14T03:00:28;11.68;;;6.50;;
79371;SDS011;68914;51.262;6.802;2023-06-14T03:01:31;13.13;;;6.85;;
79371;SDS011;68914;51.262;6.802;2023-06-14T03:02:37;11.15;;;6.40;;
79371;SDS011;68914;51.262;6.802;2023-06-14T03:03:37;10.03;;;6.20;;
79371;SDS011;68914;51.262;6.802;2023-06-14T03:04:38;10.15;;;6.45;;
79371;SDS011;68914;51.262;6.802;2023-06-14T03:05:44;10.27;;;6.57;;
79371;SDS011;68914;51.262;6.802;2023-06-14T03:06:52;11.52;;;6.60;;
79371;SDS011;68914;51.262;6.802;2023-06-14T03:07:55;10.00;;;6.25;;
79371;SDS011;68914;51.262;6.802;2023-06-14T03:08:56;11.82;;;6.68;;
79371;SDS011;68914;51.262;6.802;2023-06-14T03:10:00;9.90;;;6.40;;
79371;SDS011;68914;51.262;6.802;2023-06-14T03:11:01;11.98;;;6.40;;
79371;SDS011;68914;51.262;6.802;2023-06-14T03:12:04;10.95;;;6.75;;
79371;SDS011;68914;51.262;6.802;2023-06-14T03:13:07;10.53;;;6.47;;
79371;SDS011;68914;51.262;6.802;2023-06-14T03:14:07;11.63;;;6.70;;
79371;SDS011;68914;51.262;6.802;2023-06-14T03:15:10;11.82;;;6.35;;
79371;SDS011;68914;51.262;6.802;2023-06-14T03:16:15;11.27;;;6.40;;
79371;SDS011;68914;51.262;6.802;2023-06-14T03:17:17;13.35;;;6.40;;
79371;SDS011;68914;51.262;6.802;2023-06-14T03:18:20;10.18;;;6.10;;
79371;SDS011;68914;51.262;6.802;2023-06-14T03:19:23;12.07;;;7.17;;
79371;SDS011;68914;51.262;6.802;2023-06-14T03:20:24;10.98;;;6.40;;
79371;SDS011;68914;51.262;6.802;2023-06-14T03:21:30;10.73;;;6.55;;
79371;SDS011;68914;51.262;6.802;2023-06-14T03:22:33;10.38;;;6.40;;
79371;SDS011;68914;51.262;6.802;2023-06-14T03:23:34;9.82;;;6.30;;
79371;SDS011;68914;51.262;6.802;2023-06-14T03:24:37;10.20;;;6.38;;
79371;SDS011;68914;51.262;6.802;2023-06-14T03:25:42;10.80;;;6.23;;
79371;SDS011;68914;51.262;6.802;2023-06-14T03:26:45;13.85;;;6.50;;
79371;SDS011;68914;51.262;6.802;2023-06-14T03:27:46;11.65;;;6.22;;
79371;SDS011;68914;51.262;6.802;2023-06-14T03:28:48;10.23;;;6.28;;
79371;SDS011;68914;51.262;6.802;2023-06-14T03:29:49;10.35;;;6.20;;
79371;SDS011;68914;51.262;6.802;2023-06-14T03:30:50;11.63;;;6.30;;
79371;SDS011;68914;51.262;6.802;2023-06-14T03:31:58;10.40;;;6.25;;
79371;SDS011;68914;51.262;6.802;2023-06-14T03:33:06;12.18;;;6.35;;
79371;SDS011;68914;51.262;6.802;2023-06-14T03:34:11;9.48;;;6.15;;
79371;SDS011;68914;51.262;6.802;2023-06-14T03:35:12;10.57;;;6.30;;
79371;SDS011;68914;51.262;6.802;2023-06-14T03:36:17;10.48;;;6.25;;
79371;SDS011;68914;51.262;6.802;2023-06-14T03:37:18;10.88;;;6.40;;
79371;SDS011;68914;51.262;6.802;2023-06-14T03:38:21;10.43;;;6.45;;
79371;SDS011;68914;51.262;6.802;2023-06-14T03:39:22;10.57;;;6.38;;
79371;SDS011;68914;51.262;6.802;2023-06-14T03:40:22;10.00;;;6.35;;
79371;SDS011;68914;51.262;6.802;2023-06-14T03:41:31;12.48;;;6.03;;
79371;SDS011;68914;51.262;6.802;2023-06-14T03:42:32;10.63;;;6.43;;
79371;SDS011;68914;51.262;6.802;2023-06-14T03:43:33;12.15;;;6.20;;
79371;SDS011;68914;51.262;6.802;2023-06-14T03:44:35;12.02;;;6.68;;
79371;SDS011;68914;51.262;6.802;2023-06-14T03:45:36;11.98;;;6.72;;
79371;SDS011;68914;51.262;6.802;2023-06-14T03:46:37;10.40;;;6.17;;
79371;SDS011;68914;51.262;6.802;2023-06-14T03:47:38;10.43;;;6.68;;
79371;SDS011;68914;51.262;6.802;2023-06-14T03:48:39;10.15;;;6.40;;
79371;SDS011;68914;51.262;6.802;2023-06-14T03:49:40;12.07;;;6.40;;
79371;SDS011;68914;51.262;6.802;2023-06-14T03:50:41;12.88;;;6.55;;
79371;SDS011;68914;51.262;6.802;2023-06-14T03:51:43;11.03;;;6.43;;
79371;SDS011;68914;51.262;6.802;2023-06-14T03:52:44;10.98;;;6.72;;
79371;SDS011;68914;51.262;6.802;2023-06-14T03:53:45;11.43;;;6.45;;
79371;SDS011;68914;51.262;6.802;2023-06-14T03:54:47;13.25;;;7.00;;
79371;SDS011;68914;51.262;6.802;2023-06-14T03:55:48;10.75;;;6.75;;
79371;SDS011;68914;51.262;6.802;2023-06-14T03:56:49;12.13;;;6.93;;
79371;SDS011;68914;51.262;6.802;2023-06-14T03:57:50;11.68;;;6.78;;
79371;SDS011;68914;51.262;6.802;2023-06-14T03:58:52;12.75;;;6.85;;
79371;SDS011;68914;51.262;6.802;2023-06-14T03:59:56;11.85;;;6.85;;
79371;SDS011;68914;51.262;6.802;2023-06-14T04:00:57;10.73;;;6.68;;
79371;SDS011;68914;51.262;6.802;2023-06-14T04:01:59;13.57;;;6.80;;
79371;SDS011;68914;51.262;6.802;2023-06-14T04:03:00;11.30;;;6.57;;
79371;SDS011;68914;51.262;6.802;2023-06-14T04:04:01;11.43;;;6.78;;
79371;SDS011;68914;51.262;6.802;2023-06-14T04:05:02;11.93;;;6.43;;
79371;SDS011;68914;51.262;6.802;2023-06-14T04:06:04;10.98;;;6.68;;
79371;SDS011;68914;51.262;6.802;2023-06-14T04:07:05;12.93;;;6.70;;
79371;SDS011;68914;51.262;6.802;2023-06-14T04:08:09;11.55;;;6.95;;
79371;SDS011;68914;51.262;6.802;2023-06-14T04:09:11;10.13;;;6.65;;
79371;SDS011;68914;51.262;6.802;2023-06-14T04:10:12;9.75;;;6.55;;
79371;SDS011;68914;51.262;6.802;2023-06-14T04:11:13;13.05;;;6.80;;
79371;SDS011;68914;51.262;6.802;2023-06-14T04:12:15;12.05;;;7.15;;
79371;SDS011;68914;51.262;6.802;2023-06-14T04:13:16;11.50;;;6.80;;
79371;SDS011;68914;51.262;6.802;2023-06-14T04:14:18;11.68;;;6.78;;
79371;SDS011;68914;51.262;6.802;2023-06-14T04:15:19;13.75;;;6.70;;
79371;SDS011;68914;51.262;6.802;2023-06-14T04:16:20;12.75;;;7.07;;
79371;SDS011;68914;51.262;6.802;2023-06-14T04:17:21;11.23;;;7.00;;
79371;SDS011;68914;51.262;6.802;2023-06-14T04:18:21;12.82;;;6.78;;
79371;SDS011;68914;51.262;6.802;2023-06-14T04:19:22;13.93;;;7.00;;
79371;SDS011;68914;51.262;6.802;2023-06-14T04:20:23;11.85;;;7.00;;
79371;SDS011;68914;51.262;6.802;2023-06-14T04:21:26;10.50;;;6.45;;
79371;SDS011;68914;51.262;6.802;2023-06-14T04:22:30;10.50;;;6.78;;
79371;SDS011;68914;51.262;6.802;2023-06-14T04:23:32;12.73;;;6.85;;
79371;SDS011;68914;51.262;6.802;2023-06-14T04:24:35;10.68;;;6.90;;
79371;SDS011;68914;51.262;6.802;2023-06-14T04:25:36;11.07;;;6.60;;
79371;SDS011;68914;51.262;6.802;2023-06-14T04:26:37;11.52;;;6.45;;
79371;SDS011;68914;51.262;6.802;2023-06-14T04:27:38;12.40;;;7.07;;
79371;SDS011;68914;51.262;6.802;2023-06-14T04:28:39;10.80;;;7.05;;
79371;SDS011;68914;51.262;6.802;2023-06-14T04:29:41;12.35;;;6.95;;
79371;SDS011;68914;51.262;6.802;2023-06-14T04:30:46;11.98;;;6.90;;
79371;SDS011;68914;51.262;6.802;2023-06-14T04:31:50;13.00;;;6.90;;
79371;SDS011;68914;51.262;6.802;2023-06-14T04:32:52;11.50;;;6.57;;
79371;SDS011;68914;51.262;6.802;2023-06-14T04:33:56;11.55;;;6.75;;
79371;SDS011;68914;51.262;6.802;2023-06-14T04:34:57;13.02;;;6.72;;
79371;SDS011;68914;51.262;6.802;2023-06-14T04:36:00;11.13;;;6.53;;
79371;SDS011;68914;51.262;6.802;2023-06-14T04:37:01;14.98;;;7.40;;
79371;SDS011;68914;51.262;6.802;2023-06-14T04:38:07;11.98;;;6.97;;
79371;SDS011;68914;51.262;6.802;2023-06-14T04:39:12;13.70;;;7.13;;
79371;SDS011;68914;51.262;6.802;2023-06-14T04:40:13;12.23;;;7.15;;
79371;SDS011;68914;51.262;6.802;2023-06-14T04:41:15;11.25;;;6.57;;
79371;SDS011;68914;51.262;6.802;2023-06-14T04:42:16;11.33;;;6.20;;
79371;SDS011;68914;51.262;6.802;2023-06-14T04:43:21;10.80;;;6.75;;
79371;SDS011;68914;51.262;6.802;2023-06-14T04:44:29;13.88;;;6.50;;
79371;SDS011;68914;51.262;6.802;2023-06-14T04:45:33;12.02;;;6.50;;
79371;SDS011;68914;51.262;6.802;2023-06-14T04:46:34;10.30;;;6.53;;
79371;SDS011;68914;51.262;6.802;2023-06-14T04:47:49;10.48;;;6.13;;
79371;SDS011;68914;51.262;6.802;2023-06-14T04:48:51;11.63;;;6.32;;
79371;SDS011;68914;51.262;6.802;2023-06-14T04:49:52;13.00;;;6.93;;
79371;SDS011;68914;51.262;6.802;2023-06-14T04:50:55;11.10;;;6.55;;
79371;SDS011;68914;51.262;6.802;2023-06-14T04:51:56;14.68;;;8.05;;
79371;SDS011;68914;51.262;6.802;2023-06-14T04:53:01;11.75;;;6.88;;
79371;SDS011;68914;51.262;6.802;2023-06-14T04:54:03;11.65;;;6.38;;
79371;SDS011;68914;51.262;6.802;2023-06-14T04:55:05;9.50;;;5.53;;
79371;SDS011;68914;51.262;6.802;2023-06-14T04:56:06;11.20;;;5.90;;
79371;SDS011;68914;51.262;6.802;2023-06-14T04:57:08;10.75;;;6.10;;
79371;SDS011;68914;51.262;6.802;2023-06-14T04:58:15;11.82;;;6.22;;
79371;SDS011;68914;51.262;6.802;2023-06-14T04:59:16;9.95;;;6.28;;
79371;SDS011;68914;51.262;6.802;2023-06-14T05:00:17;10.80;;;6.20;;
79371;SDS011;68914;51.262;6.802;2023-06-14T05:01:18;10.75;;;6.18;;
79371;SDS011;68914;51.262;6.802;2023-06-14T05:02:22;10.65;;;6.20;;
79371;SDS011;68914;51.262;6.802;2023-06-14T05:03:24;11.35;;;7.00;;
79371;SDS011;68914;51.262;6.802;2023-06-14T05:04:25;10.00;;;6.20;;
79371;SDS011;68914;51.262;6.802;2023-06-14T05:05:27;9.52;;;6.00;;
79371;SDS011;68914;51.262;6.802;2023-06-14T05:06:28;10.90;;;6.18;;
79371;SDS011;68914;51.262;6.802;2023-06-14T05:07:30;11.57;;;6.28;;
79371;SDS011;68914;51.262;6.802;2023-06-14T05:08:31;11.25;;;6.45;;
79371;SDS011;68914;51.262;6.802;2023-06-14T05:09:32;11.67;;;6.20;;
79371;SDS011;68914;51.262;6.802;2023-06-14T05:10:34;11.82;;;6.07;;
79371;SDS011;68914;51.262;6.802;2023-06-14T05:11:36;12.75;;;5.85;;
79371;SDS011;68914;51.262;6.802;2023-06-14T05:12:37;11.93;;;6.00;;
79371;SDS011;68914;51.262;6.802;2023-06-14T05:13:39;12.13;;;6.22;;
79371;SDS011;68914;51.262;6.802;2023-06-14T05:14:41;10.43;;;6.28;;
79371;SDS011;68914;51.262;6.802;2023-06-14T05:15:42;9.57;;;5.83;;
79371;SDS011;68914;51.262;6.802;2023-06-14T05:16:43;9.77;;;5.78;;
79371;SDS011;68914;51.262;6.802;2023-06-14T05:17:45;9.93;;;5.93;;
79371;SDS011;68914;51.262;6.802;2023-06-14T05:18:53;10.88;;;5.90;;
79371;SDS011;68914;51.262;6.802;2023-06-14T05:19:54;11.10;;;5.50;;
79371;SDS011;68914;51.262;6.802;2023-06-14T05:20:56;9.43;;;5.78;;
79371;SDS011;68914;51.262;6.802;2023-06-14T05:21:56;10.37;;;5.40;;
79371;SDS011;68914;51.262;6.802;2023-06-14T05:22:57;9.90;;;5.40;;
79371;SDS011;68914;51.262;6.802;2023-06-14T05:23:58;9.82;;;5.70;;
79371;SDS011;68914;51.262;6.802;2023-06-14T05:24:59;9.73;;;5.57;;
79371;SDS011;68914;51.262;6.802;2023-06-14T05:26:00;10.53;;;5.37;;
79371;SDS011;68914;51.262;6.802;2023-06-14T05:27:03;10.15;;;5.70;;
79371;SDS011;68914;51.262;6.802;2023-06-14T05:28:03;12.73;;;5.82;;
79371;SDS011;68914;51.262;6.802;2023-06-14T05:29:04;10.93;;;5.40;;
79371;SDS011;68914;51.262;6.802;2023-06-14T05:30:05;9.27;;;5.28;;
79371;SDS011;68914;51.262;6.802;2023-06-14T05:31:06;9.98;;;5.70;;
79371;SDS011;68914;51.262;6.802;2023-06-14T05:32:06;10.00;;;5.33;;
79371;SDS011;68914;51.262;6.802;2023-06-14T05:33:07;12.40;;;5.47;;
79371;SDS011;68914;51.262;6.802;2023-06-14T05:34:08;9.85;;;5.10;;
79371;SDS011;68914;51.262;6.802;2023-06-14T05:35:09;9.90;;;5.20;;
79371;SDS011;68914;51.262;6.802;2023-06-14T05:36:10;9.38;;;5.20;;
79371;SDS011;68914;51.262;6.802;2023-06-14T05:37:11;11.27;;;5.13;;
79371;SDS011;68914;51.262;6.802;2023-06-14T05:38:13;12.63;;;5.07;;
79371;SDS011;68914;51.262;6.802;2023-06-14T05:39:14;10.85;;;5.30;;
79371;SDS011;68914;51.262;6.802;2023-06-14T05:40:14;9.52;;;5.10;;
79371;SDS011;68914;51.262;6.802;2023-06-14T05:41:17;11.75;;;5.38;;
79371;SDS011;68914;51.262;6.802;2023-06-14T05:42:17;10.37;;;5.30;;
79371;SDS011;68914;51.262;6.802;2023-06-14T05:43:18;10.15;;;5.28;;
79371;SDS011;68914;51.262;6.802;2023-06-14T05:44:19;9.90;;;5.33;;
79371;SDS011;68914;51.262;6.802;2023-06-14T05:45:19;8.32;;;5.05;;
79371;SDS011;68914;51.262;6.802;2023-06-14T05:46:20;10.95;;;5.07;;
79371;SDS011;68914;51.262;6.802;2023-06-14T05:47:24;9.65;;;4.97;;
79371;SDS011;68914;51.262;6.802;2023-06-14T05:48:26;12.47;;;5.13;;
79371;SDS011;68914;51.262;6.802;2023-06-14T05:49:26;9.02;;;5.40;;
79371;SDS011;68914;51.262;6.802;2023-06-14T05:50:27;8.60;;;5.33;;
79371;SDS011;68914;51.262;6.802;2023-06-14T05:51:27;8.93;;;4.88;;
79371;SDS011;68914;51.262;6.802;2023-06-14T05:52:29;9.43;;;5.13;;
79371;SDS011;68914;51.262;6.802;2023-06-14T05:53:29;10.13;;;5.45;;
79371;SDS011;68914;51.262;6.802;2023-06-14T05:54:39;8.87;;;4.87;;
79371;SDS011;68914;51.262;6.802;2023-06-14T05:55:39;10.93;;;5.03;;
79371;SDS011;68914;51.262;6.802;2023-06-14T05:56:40;10.30;;;5.10;;
79371;SDS011;68914;51.262;6.802;2023-06-14T05:57:41;9.40;;;4.63;;
79371;SDS011;68914;51.262;6.802;2023-06-14T05:58:41;8.48;;;4.90;;
79371;SDS011;68914;51.262;6.802;2023-06-14T05:59:42;9.07;;;4.80;;
79371;SDS011;68914;51.262;6.802;2023-06-14T06:00:43;10.60;;;4.95;;
79371;SDS011;68914;51.262;6.802;2023-06-14T06:01:43;7.87;;;4.60;;
79371;SDS011;68914;51.262;6.802;2023-06-14T06:02:44;9.80;;;4.70;;
79371;SDS011;68914;51.262;6.802;2023-06-14T06:03:45;9.32;;;5.10;;
79371;SDS011;68914;51.262;6.802;2023-06-14T06:04:46;8.57;;;4.80;;
79371;SDS011;68914;51.262;6.802;2023-06-14T06:05:46;10.65;;;5.05;;
79371;SDS011;68914;51.262;6.802;2023-06-14T06:06:47;9.87;;;4.77;;
79371;SDS011;68914;51.262;6.802;2023-06-14T06:07:47;9.85;;;4.85;;
79371;SDS011;68914;51.262;6.802;2023-06-14T06:08:48;9.32;;;4.55;;
79371;SDS011;68914;51.262;6.802;2023-06-14T06:09:49;9.87;;;4.53;;
79371;SDS011;68914;51.262;6.802;2023-06-14T06:10:49;10.23;;;4.82;;
79371;SDS011;68914;51.262;6.802;2023-06-14T06:11:51;9.63;;;4.65;;
79371;SDS011;68914;51.262;6.802;2023-06-14T06:12:51;8.70;;;4.50;;